14th October 2018 | Melbourne, Victoria, Australia,

Medibank Melbourne Marathon Festival (2018)

ASICS 10KM RUN: Male

Pos Name Net Overall Pos Category (Pos)
1 Harry Summers (#43623) 00:29:23 1 25-29 (1)
2 Jordan Williamsz (#40005) 00:30:18 2 Elite (1)
3 Paul Robinson (#40011) 00:30:24 3 Elite (2)
4 Tim Logan (#40003) 00:30:51 4 Elite (3)
5 Jaryd Clifford (#40008) 00:30:55 5 Elite (4)
6 Tim Norton (#43465) 00:31:04 6 30-34 (1)
7 Michael Kernahan (#41705) 00:31:54 7 20-24 (1)
8 Bouchaib Chefnaoui (#44306) 00:31:58 8 40-44 (1)
9 Frankie Conway (#40012) 00:32:18 9 Elite (5)
10 Archie Reid (#44021) 00:32:29 10 14-17 (1)
11 John Portwood (#41723) 00:32:38 11 20-24 (2)
12 Samuel Toll (#43030) 00:32:48 12 20-24 (3)
13 Jordan Tyler (#40015) 00:32:59 13 Elite (6)
14 Jack Murphy (#43055) 00:33:07 14 25-29 (2)
15 Brandon Dewar (#44031) 00:33:14 15 25-29 (3)
16 Denyan Claxton (#43469) 00:33:17 16 20-24 (4)
17 Alain Dutton (#42274) 00:33:38 17 20-24 (5)
18 Nathan Pearce (#41600) 00:33:53 18 20-24 (6)
19 Michael Johnson (#52930) 00:33:56 19 35-39 (1)
20 Grant Simpson (#42636) 00:33:58 20 45-49 (1)
21 Blake Reardon (#44561) 00:34:03 21 25-29 (4)
22 Peter Dutton (#40925) 00:34:04 22 20-24 (7)
23 Thomas Wilson (#42029) 00:34:04 23 20-24 (8)
24 Jacob Grooby (#43640) 00:34:25 25 30-34 (2)
25 Jack Bullock (#41788) 00:34:32 26 20-24 (9)
26 Dean Ryan (#43701) 00:34:33 27 30-34 (3)
27 Sam Strutt (#43415) 00:34:40 28 25-29 (5)
28 Rob Capp (#43853) 00:34:46 30 18-19 (1)
29 Lachlan Higgs (#40922) 00:34:55 31 20-24 (10)
30 David Coward (#42019) 00:35:26 34 25-29 (6)
31 Clive Reekie (#43696) 00:35:31 35 25-29 (7)
32 Mark Thompson (#44072) 00:35:36 36 35-39 (2)
33 Jack Armstrong (#40224) 00:35:43 37 14-17 (2)
34 Tynan Mims (#42642) 00:36:05 40 14-17 (3)
35 Matthew Carroll (#43753) 00:36:06 41 30-34 (4)
36 Liam Werrett (#43438) 00:36:15 42 25-29 (8)
37 Brendan Choo (#43470) 00:36:18 43 14-17 (4)
38 Paul Ashmore (#42207) 00:36:27 45 40-44 (2)
39 John Charles (#42347) 00:36:28 46 35-39 (3)
40 Darren Templeton (#43374) 00:36:41 48 45-49 (2)
41 Anthony Paige (#41998) 00:36:42 49 35-39 (4)
42 Logan Janetzki (#43048) 00:36:50 50 14-17 (5)
43 Adam Holy (#44468) 00:36:53 51 25-29 (9)
44 Simon Hanns (#43481) 00:37:00 53 25-29 (10)
45 Christopher Sutton (#40732) 00:37:02 54 14-17 (6)
46 James Ham (#40668) 00:37:02 55 14-17 (7)
47 Craig Jeffrey (#41480) 00:37:08 56 45-49 (3)
48 Joji Mori (#42037) 00:37:11 57 35-39 (5)
49 Jonathon Little (#42074) 00:37:12 58 30-34 (5)
50 Matt Mccauley (#40815) 00:37:12 59 30-34 (6)